createdAt,value
2017-11-29T00:00:28.731Z,7.90
2017-11-29T00:02:55.265Z,7.20
2017-11-29T00:05:22.207Z,4.40
2017-11-29T00:07:48.731Z,7.27
2017-11-29T00:10:15.669Z,5.90
2017-11-29T00:12:42.171Z,6.93
2017-11-29T00:15:08.544Z,6.70
2017-11-29T00:17:35.651Z,6.70
2017-11-29T00:20:02.111Z,6.50
2017-11-29T00:22:28.605Z,5.80
2017-11-29T00:24:55.406Z,6.87
2017-11-29T00:27:22.374Z,6.10
2017-11-29T00:29:48.845Z,6.87
2017-11-29T00:32:15.363Z,7.50
2017-11-29T00:34:41.913Z,7.10
2017-11-29T00:37:08.446Z,6.80
2017-11-29T00:39:34.865Z,7.63
2017-11-29T00:42:01.476Z,8.00
2017-11-29T00:44:28.621Z,7.93
2017-11-29T00:46:55.145Z,9.07
2017-11-29T00:49:21.712Z,7.93
2017-11-29T00:51:48.238Z,9.73
2017-11-29T00:54:14.857Z,9.07
2017-11-29T00:56:41.293Z,8.23
2017-11-29T00:59:07.773Z,8.77
2017-11-29T01:01:34.266Z,9.13
2017-11-29T01:04:01.606Z,8.20
2017-11-29T01:06:28.161Z,8.83
2017-11-29T01:08:54.858Z,9.43
2017-11-29T01:11:21.968Z,10.27
2017-11-29T01:13:49.133Z,11.23
2017-11-29T01:16:15.679Z,10.93
2017-11-29T01:18:42.178Z,11.50
2017-11-29T01:21:09.717Z,11.80
2017-11-29T01:23:36.239Z,13.53
2017-11-29T01:26:02.720Z,12.43
2017-11-29T01:28:29.116Z,13.30
2017-11-29T01:30:55.502Z,13.40
2017-11-29T01:33:21.918Z,13.03
2017-11-29T01:35:48.519Z,13.03
2017-11-29T01:38:15.041Z,13.60
2017-11-29T01:40:47.316Z,14.77
2017-11-29T01:43:14.545Z,13.97
2017-11-29T01:45:41.227Z,13.90
2017-11-29T01:48:09.920Z,15.10
2017-11-29T01:50:36.346Z,15.20
2017-11-29T01:53:02.809Z,14.87
2017-11-29T01:55:29.285Z,15.83
2017-11-29T01:57:55.692Z,14.50
2017-11-29T02:00:22.278Z,15.90
2017-11-29T02:02:49.681Z,15.67
2017-11-29T02:05:16.078Z,15.80
2017-11-29T02:07:42.444Z,15.60
2017-11-29T02:10:16.253Z,15.90
2017-11-29T02:12:42.940Z,16.90
2017-11-29T02:15:10.417Z,15.57
2017-11-29T02:17:41.827Z,16.03
2017-11-29T02:20:08.326Z,15.60
2017-11-29T02:22:34.774Z,17.00
2017-11-29T02:25:01.269Z,14.50
2017-11-29T02:27:27.682Z,13.93
2017-11-29T02:29:54.154Z,13.27
2017-11-29T02:32:20.619Z,14.07
2017-11-29T02:34:47.180Z,15.47
2017-11-29T02:37:13.730Z,15.70
2017-11-29T02:42:46.819Z,14.63
2017-11-29T02:45:13.279Z,13.03
2017-11-29T02:47:40.487Z,15.00
2017-11-29T02:50:07.722Z,12.77
2017-11-29T02:52:34.205Z,14.47
2017-11-29T02:55:01.508Z,14.07
2017-11-29T02:57:27.921Z,13.40
2017-11-29T02:59:54.470Z,14.60
2017-11-29T03:02:21.002Z,14.67
2017-11-29T03:04:48.258Z,13.03
2017-11-29T03:07:14.674Z,14.00
2017-11-29T03:09:41.250Z,15.70
2017-11-29T03:12:07.741Z,15.27
2017-11-29T03:14:34.495Z,16.97
2017-11-29T03:17:00.893Z,15.57
2017-11-29T03:19:27.255Z,14.97
2017-11-29T03:21:53.707Z,16.37
2017-11-29T03:24:20.083Z,17.80
2017-11-29T03:26:46.522Z,18.50
2017-11-29T03:29:13.657Z,18.67
2017-11-29T03:31:40.038Z,16.47
2017-11-29T03:34:06.500Z,17.00
2017-11-29T03:36:33.034Z,16.90
2017-11-29T03:38:59.462Z,19.67
2017-11-29T03:41:26.033Z,20.27
2017-11-29T03:43:52.497Z,19.10
2017-11-29T03:46:18.879Z,23.53
2017-11-29T03:48:45.383Z,21.10
2017-11-29T03:51:11.764Z,22.57
2017-11-29T03:53:38.168Z,22.50
2017-11-29T03:56:05.632Z,22.80
2017-11-29T03:58:32.034Z,23.33
2017-11-29T04:00:58.550Z,23.33
2017-11-29T04:03:24.963Z,22.00
2017-11-29T04:05:52.158Z,23.40
2017-11-29T04:08:18.842Z,23.80
2017-11-29T04:10:45.998Z,24.47
2017-11-29T04:13:12.528Z,25.20
2017-11-29T04:15:39.097Z,24.00
2017-11-29T04:18:05.525Z,21.90
2017-11-29T04:20:32.669Z,23.53
2017-11-29T04:22:59.855Z,25.27
2017-11-29T04:25:26.303Z,23.00
2017-11-29T04:27:53.534Z,23.80
2017-11-29T04:30:20.034Z,24.30
2017-11-29T04:32:47.174Z,21.97
2017-11-29T04:35:13.733Z,22.03
2017-11-29T04:37:40.165Z,20.67
2017-11-29T04:40:07.213Z,20.27
2017-11-29T04:42:34.369Z,22.40
2017-11-29T04:45:00.707Z,23.63
2017-11-29T04:47:27.238Z,23.27
2017-11-29T04:49:54.293Z,21.80
2017-11-29T04:52:21.044Z,23.50
2017-11-29T04:54:47.626Z,22.70
2017-11-29T04:57:15.108Z,23.00
2017-11-29T04:59:41.615Z,22.70
2017-11-29T05:02:08.793Z,24.93
2017-11-29T05:04:36.141Z,24.70
2017-11-29T05:07:02.819Z,24.80
2017-11-29T05:09:29.410Z,25.70
2017-11-29T05:11:56.277Z,24.97
2017-11-29T05:14:23.581Z,22.93
2017-11-29T05:16:51.287Z,23.70
2017-11-29T05:19:18.690Z,25.10
2017-11-29T05:21:45.324Z,26.67
2017-11-29T05:24:12.053Z,22.97
2017-11-29T05:26:38.881Z,26.20
2017-11-29T05:29:05.608Z,24.80
2017-11-29T05:31:32.334Z,26.10
2017-11-29T05:33:59.060Z,23.70
2017-11-29T05:36:25.660Z,28.27
2017-11-29T05:38:53.184Z,25.03
2017-11-29T05:41:19.938Z,23.57
2017-11-29T05:43:46.475Z,26.00
2017-11-29T05:46:13.941Z,28.83
2017-11-29T05:48:40.561Z,27.53
2017-11-29T05:51:08.138Z,27.83
2017-11-29T05:53:35.344Z,24.20
2017-11-29T05:56:02.975Z,29.70
2017-11-29T05:58:29.648Z,25.70
2017-11-29T06:00:56.379Z,26.33
2017-11-29T06:03:23.684Z,24.47
2017-11-29T06:05:50.205Z,26.77
2017-11-29T06:08:16.809Z,26.47
2017-11-29T06:10:43.326Z,26.63
2017-11-29T06:13:09.819Z,27.23
2017-11-29T06:15:36.358Z,27.47
2017-11-29T06:18:05.534Z,26.77
2017-11-29T06:20:32.121Z,25.10
2017-11-29T06:22:58.612Z,27.67
2017-11-29T06:25:25.397Z,28.03
2017-11-29T06:27:52.497Z,26.47
2017-11-29T06:30:19.210Z,28.43
2017-11-29T06:32:46.369Z,26.30
2017-11-29T06:35:13.087Z,26.77
2017-11-29T06:37:39.653Z,27.50
2017-11-29T06:40:07.160Z,28.60
2017-11-29T06:42:35.222Z,26.87
2017-11-29T06:45:02.671Z,27.37
2017-11-29T06:47:29.178Z,26.60
2017-11-29T06:49:55.630Z,27.87
2017-11-29T06:52:22.054Z,25.47
2017-11-29T06:54:48.491Z,24.60
2017-11-29T06:57:14.923Z,26.43
2017-11-29T06:59:41.360Z,25.30
2017-11-29T07:02:07.818Z,26.07
2017-11-29T07:04:34.387Z,26.23
2017-11-29T07:07:00.758Z,24.10
2017-11-29T07:09:27.310Z,25.70
2017-11-29T07:11:53.711Z,27.40
2017-11-29T07:14:20.146Z,25.43
2017-11-29T07:16:47.407Z,25.00
2017-11-29T07:19:13.916Z,24.27
2017-11-29T07:21:40.316Z,24.60
2017-11-29T07:24:06.964Z,23.53
2017-11-29T07:26:34.523Z,22.17
2017-11-29T07:29:01.503Z,22.83
2017-11-29T07:31:28.539Z,25.07
2017-11-29T07:33:55.012Z,21.90
2017-11-29T07:36:22.094Z,24.10
2017-11-29T07:38:48.565Z,21.93
2017-11-29T07:41:15.037Z,23.63
2017-11-29T07:43:41.466Z,22.20
2017-11-29T07:46:07.919Z,25.03
2017-11-29T07:48:35.086Z,23.57
2017-11-29T07:51:01.576Z,23.07
2017-11-29T07:53:28.020Z,22.40
2017-11-29T07:55:54.430Z,24.83
2017-11-29T07:58:20.899Z,24.50
2017-11-29T08:00:47.285Z,22.23
2017-11-29T08:03:13.644Z,20.33
2017-11-29T08:05:39.980Z,23.70
2017-11-29T08:08:06.334Z,22.90
2017-11-29T08:10:32.732Z,22.10
2017-11-29T08:12:59.271Z,22.10
2017-11-29T08:15:26.928Z,22.73
2017-11-29T08:17:54.116Z,20.27
2017-11-29T08:20:20.949Z,20.20
2017-11-29T08:22:47.399Z,22.67
2017-11-29T08:25:14.207Z,20.87
2017-11-29T08:27:40.844Z,21.07
2017-11-29T08:30:07.447Z,21.40
2017-11-29T08:32:34.757Z,21.60
2017-11-29T08:35:01.351Z,22.40
2017-11-29T08:37:27.829Z,22.97
2017-11-29T08:39:54.542Z,22.67
2017-11-29T08:42:21.564Z,20.87
2017-11-29T08:44:48.910Z,24.83
2017-11-29T08:47:16.603Z,26.70
2017-11-29T08:49:43.127Z,23.60
2017-11-29T08:52:09.569Z,25.23
2017-11-29T08:54:36.252Z,22.50
2017-11-29T08:57:03.761Z,25.10
2017-11-29T08:59:30.264Z,23.27
2017-11-29T09:01:56.625Z,18.70
2017-11-29T09:04:25.194Z,22.93
2017-11-29T09:06:53.386Z,19.10
2017-11-29T09:09:19.851Z,20.40
2017-11-29T09:11:46.656Z,19.97
2017-11-29T09:14:13.192Z,21.17
2017-11-29T09:16:39.762Z,20.80
2017-11-29T09:19:06.257Z,22.17
2017-11-29T09:21:33.030Z,19.70
2017-11-29T09:23:59.522Z,21.43
2017-11-29T09:26:26.720Z,20.87
2017-11-29T09:28:54.462Z,19.70
2017-11-29T09:31:21.096Z,19.37
2017-11-29T09:33:47.626Z,19.97
2017-11-29T09:36:14.910Z,20.17
2017-11-29T09:38:41.450Z,22.00
2017-11-29T09:41:07.897Z,20.23
2017-11-29T09:43:34.426Z,18.87
2017-11-29T09:46:00.984Z,21.47
2017-11-29T09:48:27.460Z,17.10
2017-11-29T09:50:53.944Z,19.33
2017-11-29T09:53:20.347Z,20.67
2017-11-29T09:55:46.853Z,22.30
2017-11-29T09:58:13.455Z,19.77
2017-11-29T10:00:41.390Z,18.90
2017-11-29T10:03:11.638Z,20.40
2017-11-29T10:05:38.387Z,21.47
2017-11-29T10:08:05.894Z,23.13
2017-11-29T10:10:33.371Z,21.57
2017-11-29T10:12:59.886Z,20.00
2017-11-29T10:15:27.196Z,18.97
2017-11-29T10:17:54.393Z,19.97
2017-11-29T10:20:22.057Z,18.80
2017-11-29T10:22:48.711Z,18.27
2017-11-29T10:25:15.300Z,19.40
2017-11-29T10:27:41.733Z,19.30
2017-11-29T10:30:08.161Z,18.80
2017-11-29T10:32:34.571Z,17.20
2017-11-29T10:35:01.887Z,19.00
2017-11-29T10:37:28.389Z,19.73
2017-11-29T10:39:54.826Z,18.67
2017-11-29T10:42:22.049Z,19.10
2017-11-29T10:44:49.265Z,18.77
2017-11-29T10:47:16.993Z,19.10
2017-11-29T10:49:44.605Z,18.90
2017-11-29T10:52:14.362Z,17.47
2017-11-29T10:54:40.812Z,19.23
2017-11-29T10:57:08.256Z,19.03
2017-11-29T10:59:35.066Z,18.80
2017-11-29T11:02:02.273Z,18.20
2017-11-29T11:04:28.860Z,18.83
2017-11-29T11:06:55.419Z,18.60
2017-11-29T11:09:21.890Z,19.03
2017-11-29T11:11:48.362Z,17.10
2017-11-29T11:14:14.943Z,18.67
2017-11-29T11:16:41.422Z,19.07
2017-11-29T11:19:07.830Z,19.50
2017-11-29T11:21:34.402Z,20.47
2017-11-29T11:24:00.907Z,19.83
2017-11-29T11:26:27.547Z,18.70
2017-11-29T11:28:54.916Z,18.37
2017-11-29T11:31:21.401Z,18.60
2017-11-29T11:33:47.926Z,19.00
2017-11-29T11:36:16.349Z,20.07
2017-11-29T11:38:42.820Z,20.03
2017-11-29T11:41:09.364Z,17.33
2017-11-29T11:43:36.607Z,17.97
2017-11-29T11:46:03.269Z,17.30
2017-11-29T11:48:32.635Z,20.30
2017-11-29T11:50:59.130Z,18.73
2017-11-29T11:53:26.322Z,19.63
2017-11-29T11:55:53.070Z,19.67
2017-11-29T11:58:19.566Z,20.83
2017-11-29T12:00:46.140Z,19.73
2017-11-29T12:03:12.673Z,17.50
2017-11-29T12:05:39.132Z,18.97
2017-11-29T12:08:05.591Z,19.20
2017-11-29T12:10:32.109Z,17.93
2017-11-29T12:12:59.256Z,19.20
2017-11-29T12:15:25.789Z,16.80
2017-11-29T12:17:52.938Z,16.70
2017-11-29T12:20:20.094Z,17.93
2017-11-29T12:22:46.756Z,16.50
2017-11-29T12:25:13.193Z,17.80
2017-11-29T12:27:40.596Z,16.23
2017-11-29T12:30:08.072Z,16.77
2017-11-29T12:32:35.142Z,17.20
2017-11-29T12:35:02.094Z,16.50
2017-11-29T12:37:28.581Z,18.27
2017-11-29T12:39:57.867Z,16.90
2017-11-29T12:42:24.418Z,15.63
2017-11-29T12:44:51.487Z,14.70
2017-11-29T12:47:18.018Z,18.40
2017-11-29T12:49:56.706Z,15.10
2017-11-29T12:52:24.367Z,16.53
2017-11-29T12:54:50.945Z,14.23
2017-11-29T12:57:19.545Z,15.40
2017-11-29T12:59:46.231Z,16.20
2017-11-29T13:02:12.731Z,17.20
2017-11-29T13:04:39.146Z,14.93
2017-11-29T13:07:05.605Z,17.13
2017-11-29T13:09:33.281Z,16.67
2017-11-29T13:12:01.130Z,16.50
2017-11-29T13:14:28.008Z,16.40
2017-11-29T13:16:55.373Z,16.00
2017-11-29T13:19:21.894Z,18.27
2017-11-29T13:21:49.148Z,16.50
2017-11-29T13:24:15.628Z,16.90
2017-11-29T13:26:42.359Z,16.47
2017-11-29T13:29:09.010Z,16.63
2017-11-29T13:31:35.565Z,17.20
2017-11-29T13:34:02.118Z,16.90
2017-11-29T13:36:28.913Z,15.53
2017-11-29T13:38:55.445Z,16.57
2017-11-29T13:41:22.205Z,15.90
2017-11-29T13:43:48.688Z,15.83
2017-11-29T13:46:15.260Z,16.50
2017-11-29T13:48:42.894Z,14.73
2017-11-29T13:51:12.458Z,17.80
2017-11-29T13:53:39.774Z,16.30
2017-11-29T13:56:06.957Z,16.40
2017-11-29T13:58:37.017Z,16.13
2017-11-29T14:01:04.850Z,16.10
2017-11-29T14:03:31.304Z,16.87
2017-11-29T14:05:57.776Z,15.83
2017-11-29T14:08:24.208Z,15.13
2017-11-29T14:10:51.238Z,13.87
2017-11-29T14:13:17.840Z,16.57
2017-11-29T14:15:44.781Z,16.70
2017-11-29T14:18:11.226Z,16.50
2017-11-29T14:20:37.747Z,16.23
2017-11-29T14:23:04.858Z,16.90
2017-11-29T14:25:32.329Z,15.90
2017-11-29T14:27:59.920Z,16.93
2017-11-29T14:30:26.375Z,16.70
2017-11-29T14:32:53.231Z,17.13
2017-11-29T14:35:20.074Z,16.83
2017-11-29T14:37:47.034Z,16.87
2017-11-29T14:40:14.530Z,16.37
2017-11-29T14:42:41.245Z,17.30
2017-11-29T14:45:11.847Z,19.07
2017-11-29T14:47:38.350Z,19.87
2017-11-29T14:50:05.331Z,18.57
2017-11-29T14:52:31.900Z,20.60
2017-11-29T14:54:58.335Z,19.10
2017-11-29T14:57:24.788Z,19.43
2017-11-29T14:59:51.122Z,19.07
2017-11-29T15:02:17.530Z,21.70
2017-11-29T15:04:44.775Z,18.80
2017-11-29T15:07:11.335Z,20.17
2017-11-29T15:09:37.965Z,20.63
2017-11-29T15:12:04.707Z,19.27
2017-11-29T15:14:31.223Z,22.37
2017-11-29T15:19:32.042Z,20.93
2017-11-29T15:21:58.642Z,23.37
2017-11-29T15:24:25.981Z,23.83
2017-11-29T15:26:52.882Z,20.20
2017-11-29T15:29:19.831Z,21.50
2017-11-29T15:31:47.199Z,21.37
2017-11-29T15:34:13.841Z,22.60
2017-11-29T15:36:40.314Z,22.17
2017-11-29T15:39:08.847Z,22.37
2017-11-29T15:41:36.522Z,24.93
2017-11-29T15:44:03.501Z,22.43
2017-11-29T15:46:29.958Z,23.10
2017-11-29T15:48:57.116Z,24.33
2017-11-29T15:51:24.003Z,25.07
2017-11-29T15:53:50.555Z,24.03
2017-11-29T15:56:16.970Z,21.60
2017-11-29T15:58:44.220Z,24.33
2017-11-29T16:01:10.735Z,24.50
2017-11-29T16:03:37.309Z,24.20
2017-11-29T16:06:03.976Z,25.37
2017-11-29T16:08:31.194Z,26.20
2017-11-29T16:10:57.643Z,25.40
2017-11-29T16:13:24.084Z,23.70
2017-11-29T16:15:51.678Z,24.83
2017-11-29T16:18:18.222Z,23.23
2017-11-29T16:20:44.673Z,24.20
2017-11-29T16:23:11.545Z,25.53
2017-11-29T16:25:38.165Z,23.93
2017-11-29T16:28:04.786Z,23.40
2017-11-29T16:30:31.457Z,22.17
2017-11-29T16:32:57.961Z,24.20
2017-11-29T16:35:25.381Z,21.70
2017-11-29T16:37:52.722Z,23.37
2017-11-29T16:40:20.526Z,22.20
2017-11-29T16:42:47.100Z,21.13
2017-11-29T16:45:13.519Z,21.30
2017-11-29T16:47:40.365Z,23.60
2017-11-29T16:50:07.249Z,23.90
2017-11-29T16:52:34.247Z,24.77
2017-11-29T16:55:02.142Z,21.27
2017-11-29T16:57:28.898Z,22.40
2017-11-29T16:59:55.573Z,24.50
2017-11-29T17:02:22.340Z,22.30
2017-11-29T17:04:50.403Z,24.97
2017-11-29T17:07:16.913Z,23.93
2017-11-29T17:09:46.794Z,23.03
2017-11-29T17:12:13.473Z,22.60
2017-11-29T17:14:40.682Z,24.93
2017-11-29T17:17:07.899Z,21.70
2017-11-29T17:19:35.816Z,22.60
2017-11-29T17:22:02.602Z,24.40
2017-11-29T17:24:29.756Z,25.10
2017-11-29T17:26:56.268Z,22.00
2017-11-29T17:29:23.497Z,24.80
2017-11-29T17:31:50.333Z,21.67
2017-11-29T17:34:16.858Z,22.90
2017-11-29T17:36:44.189Z,26.00
2017-11-29T17:39:10.617Z,21.40
2017-11-29T17:41:37.108Z,25.70
2017-11-29T17:44:03.510Z,27.90
2017-11-29T17:46:30.212Z,24.00
2017-11-29T17:48:56.784Z,24.57
2017-11-29T17:51:23.627Z,23.87
2017-11-29T17:53:50.385Z,23.40
2017-11-29T17:56:17.733Z,22.77
2017-11-29T17:58:44.567Z,22.60
2017-11-29T18:01:11.287Z,21.47
2017-11-29T18:03:38.790Z,23.90
2017-11-29T18:06:05.729Z,21.77
2017-11-29T18:08:33.416Z,23.03
2017-11-29T18:11:00.656Z,24.37
2017-11-29T18:13:27.248Z,22.90
2017-11-29T18:15:54.888Z,22.40
2017-11-29T18:18:21.457Z,22.00
2017-11-29T18:20:48.005Z,21.37
2017-11-29T18:23:14.429Z,21.70
2017-11-29T18:25:40.770Z,24.43
2017-11-29T18:28:07.261Z,20.40
2017-11-29T18:30:33.937Z,21.10
2017-11-29T18:33:00.950Z,19.70
2017-11-29T18:35:27.489Z,22.97
2017-11-29T18:37:54.060Z,23.13
2017-11-29T18:40:20.413Z,22.07
2017-11-29T18:42:46.862Z,21.47
2017-11-29T18:45:13.412Z,19.27
2017-11-29T18:47:40.481Z,19.83
2017-11-29T18:50:07.039Z,19.50
2017-11-29T18:52:33.657Z,19.80
2017-11-29T18:55:00.314Z,20.40
2017-11-29T18:57:27.360Z,19.33
2017-11-29T18:59:54.325Z,21.27
2017-11-29T19:02:21.268Z,20.10
2017-11-29T19:04:47.773Z,21.00
2017-11-29T19:07:14.331Z,22.90
2017-11-29T19:09:41.603Z,20.50
2017-11-29T19:12:08.511Z,24.30
2017-11-29T19:14:35.874Z,21.17
2017-11-29T19:17:04.354Z,21.93
2017-11-29T19:19:30.783Z,21.60
2017-11-29T19:21:57.334Z,22.80
2017-11-29T19:24:23.831Z,22.00
2017-11-29T19:26:50.209Z,21.00
2017-11-29T19:29:16.863Z,21.67
2017-11-29T19:31:43.228Z,22.50
2017-11-29T19:34:09.626Z,21.57
2017-11-29T19:36:36.870Z,20.77
2017-11-29T19:39:03.537Z,21.00
2017-11-29T19:41:30.221Z,22.17
2017-11-29T19:43:57.040Z,20.80
2017-11-29T19:46:23.538Z,21.43
2017-11-29T19:48:50.027Z,23.53
2017-11-29T19:51:16.664Z,22.20
2017-11-29T19:53:43.177Z,22.10
2017-11-29T19:56:09.881Z,22.20
2017-11-29T19:58:36.362Z,23.73
2017-11-29T20:01:02.933Z,22.40
2017-11-29T20:03:29.373Z,21.33
2017-11-29T20:05:55.819Z,21.23
2017-11-29T20:08:22.898Z,21.73
2017-11-29T20:10:49.397Z,21.27
2017-11-29T20:13:16.220Z,22.80
2017-11-29T20:15:42.647Z,23.00
2017-11-29T20:18:09.171Z,21.50
2017-11-29T20:20:35.699Z,22.03
2017-11-29T20:23:02.444Z,21.50
2017-11-29T20:25:30.225Z,23.20
2017-11-29T20:27:57.664Z,22.53
2017-11-29T20:30:24.961Z,22.03
2017-11-29T20:32:51.552Z,21.53
2017-11-29T20:35:19.013Z,22.23
2017-11-29T20:37:45.442Z,24.33
2017-11-29T20:40:11.856Z,20.40
2017-11-29T20:42:38.358Z,23.27
2017-11-29T20:45:05.380Z,21.17
2017-11-29T20:47:31.972Z,22.07
2017-11-29T20:49:58.762Z,21.77
2017-11-29T20:52:37.715Z,21.83
2017-11-29T20:55:04.273Z,22.63
2017-11-29T20:57:30.716Z,22.77
2017-11-29T20:59:58.014Z,20.90
2017-11-29T21:02:24.683Z,23.40
2017-11-29T21:04:51.466Z,24.30
2017-11-29T21:07:18.850Z,22.10
2017-11-29T21:09:46.073Z,22.87
2017-11-29T21:12:12.636Z,24.50
2017-11-29T21:14:39.200Z,23.27
2017-11-29T21:17:06.444Z,25.10
2017-11-29T21:19:32.885Z,23.20
2017-11-29T21:21:59.998Z,22.80
2017-11-29T21:24:26.394Z,23.50
2017-11-29T21:26:52.826Z,22.47
2017-11-29T21:29:19.310Z,21.50
2017-11-29T21:31:45.801Z,22.50
2017-11-29T21:34:12.241Z,24.93
2017-11-29T21:36:39.031Z,23.77
2017-11-29T21:39:05.467Z,22.80
2017-11-29T21:41:31.974Z,24.20
2017-11-29T21:43:58.481Z,23.40
2017-11-29T21:46:24.987Z,22.07
2017-11-29T21:48:51.542Z,22.40
2017-11-29T21:51:17.984Z,24.60
2017-11-29T21:53:44.407Z,24.17
2017-11-29T21:56:10.918Z,23.83
2017-11-29T21:58:39.179Z,22.07
2017-11-29T22:01:08.686Z,24.10
2017-11-29T22:03:35.255Z,22.13
2017-11-29T22:06:01.901Z,22.43
2017-11-29T22:08:28.890Z,22.33
2017-11-29T22:10:55.327Z,22.90
2017-11-29T22:13:21.735Z,21.00
2017-11-29T22:15:50.417Z,21.60
2017-11-29T22:18:17.711Z,23.10
2017-11-29T22:20:44.814Z,24.83
2017-11-29T22:23:11.986Z,22.87
2017-11-29T22:25:38.429Z,23.60
2017-11-29T22:28:04.926Z,22.67
2017-11-29T22:30:32.080Z,25.17
2017-11-29T22:32:58.456Z,25.27
2017-11-29T22:35:24.937Z,25.03
2017-11-29T22:37:51.439Z,24.90
2017-11-29T22:40:18.631Z,24.20
2017-11-29T22:42:45.056Z,23.93
2017-11-29T22:45:11.498Z,23.67
2017-11-29T22:47:37.851Z,23.70
2017-11-29T22:50:04.254Z,24.20
2017-11-29T22:52:30.657Z,23.20
2017-11-29T22:54:57.141Z,23.87
2017-11-29T22:57:23.518Z,24.60
2017-11-29T22:59:50.646Z,24.40
2017-11-29T23:02:17.041Z,26.10
2017-11-29T23:04:43.490Z,23.17
2017-11-29T23:07:10.003Z,24.30
2017-11-29T23:09:36.477Z,24.40
2017-11-29T23:12:02.983Z,24.30
2017-11-29T23:17:03.264Z,24.40
2017-11-29T23:19:30.847Z,27.27
2017-11-29T23:21:59.266Z,26.03
2017-11-29T23:24:26.027Z,24.47
2017-11-29T23:26:53.210Z,26.47
2017-11-29T23:29:19.576Z,26.57
2017-11-29T23:31:46.802Z,26.57
2017-11-29T23:34:13.325Z,24.30
2017-11-29T23:36:39.706Z,25.40
2017-11-29T23:39:06.421Z,25.13
2017-11-29T23:41:32.994Z,24.83
2017-11-29T23:43:59.555Z,27.70
2017-11-29T23:46:26.143Z,25.70
2017-11-29T23:48:53.066Z,26.10
2017-11-29T23:51:21.349Z,28.20
2017-11-29T23:53:47.742Z,26.93
2017-11-29T23:56:14.892Z,27.60
2017-11-29T23:58:41.805Z,28.87
